Airfield :
LOGIN :

Register | Disclaimer

   EN    FR    IT 

 










Legend :    VFR   Marginal VFR   IFR   Intensive IFR   Very Intensive IFR
Visi :
Ceiling :
>= 8 km
>= 3000ft
5 to 8 km
1000 to 3000 ft
1500m to 5 km
500 to 1000 ft
800 to 1500m
200 to 500 ft
< 800m
< 200 ft
Symbols :   Thunderstorms  Fog  Heavy snow  Heavy precipitations  Wind > 20 kt
SIGMETs :     Misc.  Thunderstorms  Icing  Turbulence  Mountain Waves  Volcanic Ashes






- Airport Elevation : 17 ft
- IATA code : MPL


LFMT - Montpellier Méditerranée

CURRENT METAR :
  • 011430Z AUTO 04006KT 010V070 CAVOK 12/05 Q1017 NOSIG

EXPIRED METARs :
  • 011400Z AUTO 03007KT CAVOK 13/05 Q1017 NOSIG
  • 011330Z AUTO 02005KT CAVOK 12/05 Q1017 NOSIG
  • 011300Z AUTO 03008KT CAVOK 12/05 Q1017 NOSIG
  • 011230Z AUTO 03007KT 9999 FEW043 OVC072 12/05 Q1017 NOSIG
  • 011200Z AUTO 03008KT 9999 BKN043 OVC074 11/05 Q1018 NOSIG
  • 011130Z AUTO 02008KT 9999 BKN041 OVC068 11/04 Q1018 NOSIG

TAF TAF LFMT
Valid from the 01 at 09:00 until the 02 at 09:00 UTC


010800Z 0109/0209 01008KT 9999 FEW045 BKN070
ATIS : +33 4 67 13 11 70



MET'MAP, your aeronautical weather chart ! - Copyright ORBIFLY December 2007 - Disclaimer

ORBIFLY MET'MAP TEAM :

Programming & Development : Alexandra Zaïnal
Original concept : Baudouin d'Aumeries
Technical & hardware support : Manuel Goepfert
Assistance : Marc-Olivier Méhu




SOURCES & CREDITS :

   NOAA